Time;durP1;ratioP1;P1;durP2;ratioP2;P2;SDS_P1;SDS_P2;PMS_P1;PMS_P2;Temp;Humidity;BMP_temperature;BMP_pressure;BME280_temperature;BME280_humidity;BME280_pressure;Samples;Min_cycle;Max_cycle;Signal;HPM_P1;HPM_P2
2021/09/16 00:01:39;;;;;;;5.10;1.37;;;18.60;99.90;;;;;;6229829;23;20184;-91
2021/09/16 00:04:14;;;;;;;6.00;2.03;;;18.30;99.90;;;;;;6234236;23;20181;-92
2021/09/16 00:06:54;;;;;;;5.43;2.13;;;18.00;99.90;;;;;;6233957;23;20171;-94
2021/09/16 00:09:26;;;;;;;3.80;1.40;;;17.90;99.90;;;;;;6207262;23;20184;-90
2021/09/16 00:11:57;;;;;;;4.60;1.30;;;17.80;99.90;;;;;;6233024;23;20180;-90
2021/09/16 00:14:36;;;;;;;2.97;1.50;;;17.80;99.90;;;;;;6233162;23;20599;-90
2021/09/16 00:17:08;;;;;;;6.73;1.80;;;17.60;99.90;;;;;;6232686;23;20180;-93
2021/09/16 00:19:43;;;;;;;6.43;1.60;;;17.50;99.90;;;;;;6233160;23;20180;-94
2021/09/16 00:22:15;;;;;;;4.13;1.60;;;17.50;99.90;;;;;;6232018;23;20491;-92
2021/09/16 00:24:46;;;;;;;6.33;1.80;;;17.50;99.90;;;;;;6206619;23;20176;-89
2021/09/16 00:27:17;;;;;;;37.80;4.10;;;17.60;99.90;;;;;;6206516;23;20180;-93
2021/09/16 00:29:49;;;;;;;6.43;1.60;;;17.80;99.90;;;;;;6206010;23;20200;-93
2021/09/16 00:32:23;;;;;;;6.23;1.50;;;17.70;99.90;;;;;;6233359;23;20697;-95
2021/09/16 00:34:59;;;;;;;5.53;1.53;;;17.70;99.90;;;;;;6234108;23;20211;-92
2021/09/16 00:37:33;;;;;;;4.70;1.40;;;17.90;99.90;;;;;;6234732;23;20180;-92
2021/09/16 00:40:08;;;;;;;4.20;1.30;;;18.10;99.90;;;;;;6207213;23;20196;-92
2021/09/16 00:42:40;;;;;;;3.87;1.30;;;18.10;99.90;;;;;;6219546;23;20179;-91
2021/09/16 00:45:12;;;;;;;3.43;1.27;;;18.10;99.90;;;;;;6219015;23;20176;-91
2021/09/16 00:47:52;;;;;;;3.13;1.40;;;17.60;99.90;;;;;;6235927;23;20227;-93
2021/09/16 00:50:31;;;;;;;7.43;1.43;;;17.30;99.90;;;;;;6208808;23;20212;-94
2021/09/16 00:53:04;;;;;;;4.63;1.37;;;17.20;99.90;;;;;;6231622;23;20192;-90
2021/09/16 00:55:35;;;;;;;3.37;1.50;;;17.10;99.90;;;;;;6232050;23;20176;-91
2021/09/16 00:58:07;;;;;;;3.83;1.43;;;17.10;99.90;;;;;;6224734;23;20176;-92
2021/09/16 01:00:39;;;;;;;9.00;1.53;;;17.20;99.90;;;;;;6224444;23;20638;-91
2021/09/16 01:03:10;;;;;;;6.03;1.77;;;17.10;99.90;;;;;;6218799;23;20178;-92
2021/09/16 01:05:44;;;;;;;3.53;1.47;;;17.10;99.90;;;;;;6217529;23;20168;-89
2021/09/16 01:08:20;;;;;;;4.13;1.20;;;17.10;99.90;;;;;;6229153;23;20168;-90
2021/09/16 01:10:54;;;;;;;5.00;1.27;;;17.00;99.90;;;;;;6209163;23;20641;-92
2021/09/16 01:13:25;;;;;;;3.93;1.40;;;17.00;99.90;;;;;;6229903;23;20179;-91
2021/09/16 01:16:00;;;;;;;4.60;1.60;;;16.90;99.90;;;;;;6219984;23;20175;-91
2021/09/16 01:18:31;;;;;;;5.83;1.70;;;16.80;99.90;;;;;;6221814;23;20234;-90
2021/09/16 01:21:04;;;;;;;4.27;1.50;;;16.70;99.90;;;;;;6223040;23;20176;-91
2021/09/16 01:23:37;;;;;;;3.60;1.30;;;16.70;99.90;;;;;;6238829;23;20172;-92
2021/09/16 01:26:09;;;;;;;4.87;1.67;;;16.60;99.90;;;;;;6241871;23;20168;-89
2021/09/16 01:28:40;;;;;;;3.80;1.60;;;16.50;99.90;;;;;;6244936;23;20167;-92
2021/09/16 01:31:13;;;;;;;7.37;1.60;;;16.50;99.90;;;;;;6243745;23;20206;-90
2021/09/16 01:33:45;;;;;;;4.03;1.80;;;16.30;99.90;;;;;;6243655;23;20184;-90
2021/09/16 01:36:18;;;;;;;3.83;1.60;;;16.30;99.90;;;;;;6241733;23;20168;-92
2021/09/16 01:38:52;;;;;;;4.70;1.50;;;16.20;99.90;;;;;;6242121;23;20168;-96
2021/09/16 01:41:23;;;;;;;4.50;1.57;;;16.10;99.90;;;;;;6239999;23;20183;-93
2021/09/16 01:43:56;;;;;;;3.80;1.70;;;16.10;99.90;;;;;;6242406;23;20157;-93
2021/09/16 01:46:27;;;;;;;3.27;1.33;;;16.00;99.90;;;;;;6241902;23;20168;-94
2021/09/16 01:49:00;;;;;;;4.00;1.30;;;16.00;99.90;;;;;;6243049;23;20225;-93
2021/09/16 01:51:32;;;;;;;3.07;1.43;;;15.90;99.90;;;;;;6243069;23;20188;-94
2021/09/16 01:54:07;;;;;;;2.93;1.57;;;15.80;99.90;;;;;;6241515;23;20176;-93
2021/09/16 01:56:40;;;;;;;2.83;1.53;;;15.80;99.90;;;;;;6239941;23;20195;-94
2021/09/16 01:59:11;;;;;;;4.27;1.40;;;15.70;99.90;;;;;;6238204;23;20192;-95
2021/09/16 02:01:44;;;;;;;6.57;1.73;;;15.60;99.90;;;;;;6235120;23;20224;-94
2021/09/16 02:04:16;;;;;;;6.53;1.90;;;15.50;99.90;;;;;;6239067;23;20169;-95
2021/09/16 02:06:51;;;;;;;6.17;2.37;;;15.40;99.90;;;;;;6234876;23;20165;-92
2021/09/16 02:09:30;;;;;;;5.27;1.73;;;15.40;99.90;;;;;;6210578;23;20188;-96
2021/09/16 02:12:01;;;;;;;5.03;1.70;;;15.40;99.90;;;;;;6197768;23;20195;-94
2021/09/16 02:14:32;;;;;;;6.57;1.53;;;15.40;99.90;;;;;;6209674;23;20169;-92
2021/09/16 02:17:05;;;;;;;3.67;1.40;;;15.40;99.90;;;;;;6209340;23;20231;-92
2021/09/16 02:22:13;;;;;;;3.90;1.40;;;15.40;99.90;;;;;;6209188;23;20255;-90
2021/09/16 02:27:27;;;;;;;4.97;1.80;;;15.30;99.90;;;;;;6244020;23;20318;-95
2021/09/16 02:29:58;;;;;;;5.90;2.50;;;15.20;99.90;;;;;;6244000;23;20152;-94
2021/09/16 02:32:31;;;;;;;3.73;1.70;;;15.20;99.90;;;;;;6240744;23;20192;-94
2021/09/16 02:35:02;;;;;;;5.30;1.63;;;15.10;99.90;;;;;;6237521;23;20179;-94
2021/09/16 02:37:34;;;;;;;6.00;2.10;;;15.10;99.90;;;;;;6237193;23;20203;-94
2021/09/16 02:40:05;;;;;;;5.13;2.20;;;15.00;99.90;;;;;;6243437;23;20168;-93
2021/09/16 02:42:39;;;;;;;4.30;2.00;;;15.00;99.90;;;;;;6243251;23;20172;-93
2021/09/16 02:45:13;;;;;;;6.67;2.00;;;15.00;99.90;;;;;;6243959;23;20172;-94
2021/09/16 02:47:44;;;;;;;5.23;1.93;;;15.00;99.90;;;;;;6205147;23;20204;-91
2021/09/16 02:50:15;;;;;;;4.47;1.60;;;15.10;99.90;;;;;;6240850;23;20176;-93
2021/09/16 02:52:49;;;;;;;6.90;1.50;;;15.10;99.90;;;;;;6236545;23;20634;-94
2021/09/16 02:55:21;;;;;;;6.20;1.73;;;15.00;99.90;;;;;;6236240;23;20173;-93
2021/09/16 02:57:55;;;;;;;5.30;1.53;;;15.00;99.90;;;;;;6237209;23;20176;-94
2021/09/16 03:00:26;;;;;;;3.47;1.50;;;15.00;99.90;;;;;;6235731;23;20179;-93
2021/09/16 03:02:58;;;;;;;5.23;1.53;;;14.90;99.90;;;;;;6205557;23;20520;-94
2021/09/16 03:05:29;;;;;;;4.13;1.57;;;14.90;99.90;;;;;;6235171;23;20179;-94
2021/09/16 03:08:01;;;;;;;3.33;1.83;;;14.80;99.90;;;;;;6235246;23;20173;-94
2021/09/16 03:10:32;;;;;;;3.50;1.30;;;14.70;99.90;;;;;;6230638;23;20227;-95
2021/09/16 03:13:06;;;;;;;4.80;1.70;;;14.70;99.90;;;;;;6232805;23;20308;-94
2021/09/16 03:15:37;;;;;;;2.70;1.40;;;14.60;99.90;;;;;;6236399;23;20169;-94
2021/09/16 03:18:09;;;;;;;6.27;1.60;;;14.50;99.90;;;;;;6208996;23;20172;-94
2021/09/16 03:20:41;;;;;;;7.87;1.80;;;14.50;99.90;;;;;;6232481;23;20234;-95
2021/09/16 03:23:12;;;;;;;4.53;1.77;;;14.40;99.90;;;;;;6235789;23;20169;-94
2021/09/16 03:25:44;;;;;;;4.83;1.60;;;14.30;99.90;;;;;;6233750;23;20180;-94
2021/09/16 03:28:18;;;;;;;5.93;1.47;;;14.20;99.90;;;;;;6208397;23;20176;-94
2021/09/16 03:30:50;;;;;;;3.03;1.40;;;14.10;99.90;;;;;;6233369;23;20179;-93
2021/09/16 03:33:25;;;;;;;4.30;1.43;;;14.10;99.90;;;;;;6241035;23;20156;-94
2021/09/16 03:35:56;;;;;;;6.33;1.67;;;14.00;99.90;;;;;;6239282;23;20176;-94
2021/09/16 03:38:27;;;;;;;6.13;1.90;;;14.00;99.90;;;;;;6209691;23;20222;-93
2021/09/16 03:40:59;;;;;;;3.77;1.53;;;14.00;99.90;;;;;;6237522;23;20228;-95
2021/09/16 03:43:32;;;;;;;3.07;1.27;;;13.90;99.90;;;;;;6243009;23;20165;-95
2021/09/16 03:46:03;;;;;;;5.37;1.50;;;13.80;99.90;;;;;;6242197;23;20183;-95
2021/09/16 03:48:36;;;;;;;4.67;1.40;;;13.80;99.90;;;;;;6215384;22;20189;-92
2021/09/16 03:51:08;;;;;;;7.73;2.13;;;13.80;99.90;;;;;;6244240;22;20168;-93
2021/09/16 03:53:40;;;;;;;5.10;1.80;;;13.70;99.90;;;;;;6270877;22;20171;-93
2021/09/16 03:56:13;;;;;;;7.37;1.90;;;13.70;99.90;;;;;;6267229;23;20160;-93
2021/09/16 03:58:49;;;;;;;3.63;1.17;;;13.60;99.90;;;;;;6266529;23;20214;-94
2021/09/16 04:01:20;;;;;;;4.73;1.70;;;13.50;99.90;;;;;;6263979;23;20175;-94
2021/09/16 04:03:54;;;;;;;7.07;1.67;;;13.50;99.90;;;;;;6239607;23;20206;-96
2021/09/16 04:06:27;;;;;;;6.50;1.60;;;13.50;99.90;;;;;;6266369;23;20175;-95
2021/09/16 04:09:03;;;;;;;5.40;1.53;;;13.40;99.90;;;;;;6236892;23;20219;-95
2021/09/16 04:11:35;;;;;;;6.50;1.77;;;13.40;99.90;;;;;;6264596;23;20191;-94
2021/09/16 04:14:10;;;;;;;6.00;1.70;;;13.40;99.90;;;;;;6260446;23;20160;-96
2021/09/16 04:16:42;;;;;;;3.90;1.50;;;13.40;99.90;;;;;;6259905;23;20175;-96
2021/09/16 04:19:15;;;;;;;6.63;1.60;;;13.30;99.90;;;;;;6265438;23;20199;-95
2021/09/16 04:21:47;;;;;;;5.67;1.60;;;13.20;99.90;;;;;;6258363;23;20255;-92
2021/09/16 04:24:19;;;;;;;4.07;1.57;;;13.20;99.90;;;;;;6258435;23;20172;-94
2021/09/16 04:26:50;;;;;;;6.97;1.70;;;13.10;99.90;;;;;;6250441;23;20610;-94
2021/09/16 04:29:24;;;;;;;8.40;1.97;;;13.10;99.90;;;;;;6265013;23;20198;-94
2021/09/16 04:31:56;;;;;;;6.00;1.83;;;13.00;99.90;;;;;;6252512;23;20194;-94
2021/09/16 04:34:32;;;;;;;5.53;1.50;;;13.00;99.90;;;;;;6266605;23;20175;-94
2021/09/16 04:37:04;;;;;;;3.77;1.50;;;12.90;99.90;;;;;;6265855;23;20175;-94
2021/09/16 04:39:36;;;;;;;9.50;1.97;;;12.90;99.90;;;;;;6263718;23;20186;-94
2021/09/16 04:42:09;;;;;;;6.23;1.90;;;12.90;99.90;;;;;;6263232;23;20186;-93
2021/09/16 04:44:46;;;;;;;6.17;1.97;;;12.80;99.90;;;;;;6260652;23;20239;-92
2021/09/16 04:47:17;;;;;;;6.43;1.83;;;12.80;99.90;;;;;;6259921;23;20175;-94
2021/09/16 04:49:55;;;;;;;7.70;1.80;;;12.80;99.90;;;;;;6264924;23;20201;-91
2021/09/16 04:52:27;;;;;;;7.20;1.77;;;12.70;99.90;;;;;;6260654;23;20191;-93
2021/09/16 04:54:59;;;;;;;5.80;1.67;;;12.70;99.90;;;;;;6258523;23;20206;-93
2021/09/16 04:57:30;;;;;;;8.90;1.83;;;12.70;99.90;;;;;;6250419;23;20164;-93
2021/09/16 05:00:05;;;;;;;8.23;1.87;;;12.60;99.90;;;;;;6252657;22;20207;-91
2021/09/16 05:02:36;;;;;;;8.37;1.73;;;12.60;99.90;;;;;;6258344;23;20163;-93
2021/09/16 05:05:08;;;;;;;7.60;1.80;;;12.60;99.90;;;;;;6267077;23;20168;-94
2021/09/16 05:07:40;;;;;;;13.47;2.30;;;12.60;99.90;;;;;;6263422;23;20195;-94
2021/09/16 05:10:12;;;;;;;7.03;1.80;;;12.60;99.90;;;;;;6259190;23;20178;-95
2021/09/16 05:12:44;;;;;;;7.27;2.10;;;12.60;99.90;;;;;;6255362;22;20202;-95
2021/09/16 05:15:17;;;;;;;10.03;2.33;;;12.60;99.90;;;;;;6267210;23;20175;-94
2021/09/16 05:17:49;;;;;;;6.90;1.63;;;12.60;99.90;;;;;;6249286;23;20171;-94
2021/09/16 05:20:22;;;;;;;11.27;2.50;;;12.60;99.90;;;;;;6256846;23;20168;-93
2021/09/16 05:22:53;;;;;;;8.87;2.43;;;12.60;99.90;;;;;;6247478;23;20179;-93
2021/09/16 05:25:25;;;;;;;11.43;1.93;;;12.60;99.90;;;;;;6248168;23;20202;-93
2021/09/16 05:27:56;;;;;;;8.40;2.30;;;12.50;99.90;;;;;;6248425;23;20206;-93
2021/09/16 05:30:29;;;;;;;11.87;2.30;;;12.50;99.90;;;;;;6248377;23;20203;-93
2021/09/16 05:33:02;;;;;;;13.17;2.60;;;12.50;99.90;;;;;;6261288;23;20207;-94
2021/09/16 05:35:33;;;;;;;10.30;1.97;;;12.50;99.90;;;;;;6222660;23;20180;-93
2021/09/16 05:38:04;;;;;;;11.93;2.40;;;12.50;99.90;;;;;;6247489;23;20172;-93
2021/09/16 05:40:35;;;;;;;11.03;2.50;;;12.40;99.90;;;;;;6246698;23;20214;-95
2021/09/16 05:43:06;;;;;;;12.40;2.50;;;12.50;99.90;;;;;;6248236;23;20234;-92
2021/09/16 05:45:39;;;;;;;11.27;2.47;;;12.50;99.90;;;;;;6247805;23;20207;-92
2021/09/16 05:48:12;;;;;;;9.63;2.20;;;12.50;99.90;;;;;;6248566;23;20167;-92
2021/09/16 05:50:43;;;;;;;9.27;2.37;;;12.50;99.90;;;;;;6248902;23;20240;-92
2021/09/16 05:53:14;;;;;;;9.30;2.00;;;12.40;99.90;;;;;;6248332;23;20233;-92
2021/09/16 05:55:46;;;;;;;9.83;2.13;;;12.40;99.90;;;;;;6248800;23;20615;-93
2021/09/16 06:01:32;;;;;;;10.40;2.33;;;12.40;99.90;;;;;;6206308;23;20255;-95
2021/09/16 06:04:06;;;;;;;7.07;2.07;;;12.30;99.90;;;;;;6212446;23;20247;-93
2021/09/16 06:06:37;;;;;;;11.43;2.00;;;12.30;99.90;;;;;;6221523;23;20177;-93
2021/09/16 06:09:07;;;;;;;10.33;2.20;;;12.20;99.90;;;;;;6219314;23;20199;-94
2021/09/16 06:11:39;;;;;;;11.77;1.80;;;12.20;99.90;;;;;;6218592;23;20219;-94
2021/09/16 06:14:10;;;;;;;14.80;2.37;;;12.00;99.90;;;;;;6218831;23;20227;-91
2021/09/16 06:16:44;;;;;;;8.47;2.47;;;12.00;99.90;;;;;;6219316;23;20203;-93
2021/09/16 06:19:15;;;;;;;11.27;2.37;;;12.00;99.90;;;;;;6219994;23;20192;-94
2021/09/16 06:21:46;;;;;;;9.47;2.00;;;11.90;99.90;;;;;;6219084;23;20172;-94
2021/09/16 06:24:18;;;;;;;7.40;2.40;;;11.90;99.90;;;;;;6219603;23;20173;-94
2021/09/16 06:26:49;;;;;;;9.37;2.23;;;11.90;99.90;;;;;;6218728;23;20180;-94
2021/09/16 06:29:20;;;;;;;12.43;2.00;;;11.90;99.90;;;;;;6218591;23;20195;-94
2021/09/16 06:31:53;;;;;;;8.00;2.00;;;11.90;99.90;;;;;;6219328;23;20199;-94
2021/09/16 06:34:24;;;;;;;14.40;3.30;;;11.90;99.90;;;;;;6216876;23;20726;-94
2021/09/16 06:36:57;;;;;;;10.10;2.27;;;11.80;99.90;;;;;;6218762;23;20176;-94
2021/09/16 06:39:28;;;;;;;13.57;2.33;;;11.80;99.90;;;;;;6219338;23;20642;-93
2021/09/16 06:41:59;;;;;;;9.67;2.10;;;11.70;99.90;;;;;;6218400;23;20161;-93
2021/09/16 06:44:30;;;;;;;8.00;2.27;;;11.70;99.90;;;;;;6218589;23;20552;-93
2021/09/16 06:47:03;;;;;;;8.53;2.23;;;11.70;99.90;;;;;;6218536;23;20173;-93
2021/09/16 06:49:39;;;;;;;8.90;1.97;;;11.60;99.90;;;;;;6220160;23;20196;-93
2021/09/16 06:52:11;;;;;;;7.50;1.87;;;11.60;99.90;;;;;;6218096;23;20511;-94
2021/09/16 06:54:43;;;;;;;10.17;2.17;;;11.60;99.90;;;;;;6218600;23;20200;-93
2021/09/16 06:57:14;;;;;;;10.23;2.33;;;11.60;99.90;;;;;;6219063;23;20203;-93
2021/09/16 06:59:47;;;;;;;9.33;1.87;;;11.50;99.90;;;;;;6220113;23;20195;-93
2021/09/16 07:02:20;;;;;;;9.57;2.00;;;11.50;99.90;;;;;;6195196;23;20281;-93
2021/09/16 07:04:54;;;;;;;10.97;3.13;;;11.40;99.90;;;;;;6193679;23;20636;-93
2021/09/16 07:07:26;;;;;;;8.07;2.37;;;11.40;99.90;;;;;;6188624;23;20205;-95
2021/09/16 07:09:57;;;;;;;8.87;2.20;;;11.40;99.90;;;;;;6189009;23;20282;-94
2021/09/16 07:12:33;;;;;;;12.67;2.07;;;11.30;99.90;;;;;;6187210;23;20177;-95
2021/09/16 07:15:04;;;;;;;9.40;2.20;;;11.20;99.90;;;;;;6188242;23;20498;-94
2021/09/16 07:17:40;;;;;;;10.47;2.73;;;11.20;99.90;;;;;;6189879;23;20161;-94
2021/09/16 07:20:12;;;;;;;6.57;1.70;;;11.10;99.90;;;;;;6187257;23;20172;-94
2021/09/16 07:22:43;;;;;;;6.97;1.80;;;11.00;99.90;;;;;;6186718;23;20199;-94
2021/09/16 07:25:24;;;;;;;11.60;1.93;;;11.00;99.90;;;;;;6192425;23;20185;-94
2021/09/16 07:27:58;;;;;;;8.93;2.03;;;11.00;99.90;;;;;;6197660;23;20252;-94
2021/09/16 07:30:29;;;;;;;9.77;1.97;;;10.90;99.90;;;;;;6202457;23;20199;-93
2021/09/16 07:33:03;;;;;;;9.73;2.10;;;10.90;99.90;;;;;;6189270;23;20184;-93
2021/09/16 07:35:35;;;;;;;9.43;2.30;;;10.80;99.90;;;;;;6189289;23;20177;-93
2021/09/16 07:38:06;;;;;;;9.73;2.27;;;10.80;99.90;;;;;;6188641;23;20575;-93
2021/09/16 07:40:37;;;;;;;7.10;2.10;;;10.70;99.90;;;;;;6187351;23;20260;-91
2021/09/16 07:43:09;;;;;;;7.87;2.10;;;10.60;99.90;;;;;;6188575;23;20177;-92
2021/09/16 07:45:40;;;;;;;10.03;2.17;;;10.60;99.90;;;;;;6188943;23;20193;-93
2021/09/16 07:48:13;;;;;;;7.03;1.97;;;10.60;99.90;;;;;;6189391;23;20256;-93
2021/09/16 07:50:46;;;;;;;9.67;2.13;;;10.60;99.90;;;;;;6188101;23;20181;-93
2021/09/16 07:53:17;;;;;;;8.07;2.47;;;10.50;99.90;;;;;;6188864;23;20252;-93
2021/09/16 07:55:49;;;;;;;13.17;2.27;;;10.50;99.90;;;;;;6189108;23;20197;-92
2021/09/16 07:58:23;;;;;;;10.23;2.17;;;10.40;99.90;;;;;;6190990;23;20188;-93
2021/09/16 08:00:54;;;;;;;9.57;2.30;;;10.30;99.90;;;;;;6195340;23;20262;-93
2021/09/16 08:03:28;;;;;;;11.87;2.07;;;10.30;99.90;;;;;;6221557;23;20184;-93
2021/09/16 08:06:00;;;;;;;6.33;2.60;;;10.30;99.90;;;;;;6229877;23;20228;-93
2021/09/16 08:08:31;;;;;;;7.80;1.90;;;10.20;99.90;;;;;;6241507;23;20216;-93
2021/09/16 08:11:03;;;;;;;8.07;1.90;;;10.20;99.90;;;;;;6237485;23;20268;-95
2021/09/16 08:13:34;;;;;;;6.67;1.70;;;10.20;99.90;;;;;;6242021;23;20184;-92
2021/09/16 08:16:06;;;;;;;9.77;2.00;;;10.20;99.90;;;;;;6242581;23;20223;-93
2021/09/16 08:18:39;;;;;;;8.17;2.27;;;10.20;99.90;;;;;;6242209;23;20180;-91
2021/09/16 08:21:13;;;;;;;10.80;2.03;;;10.20;99.90;;;;;;6241446;23;20180;-93
2021/09/16 08:23:45;;;;;;;10.60;2.07;;;10.20;99.90;;;;;;6213676;23;20180;-91
2021/09/16 08:26:16;;;;;;;6.97;1.80;;;10.10;99.90;;;;;;6240526;23;20179;-93
2021/09/16 08:28:47;;;;;;;9.10;2.20;;;10.10;99.90;;;;;;6230143;23;20209;-93
2021/09/16 08:31:19;;;;;;;6.13;2.00;;;10.00;99.90;;;;;;6222776;23;20180;-93
2021/09/16 08:33:54;;;;;;;8.30;1.93;;;10.00;99.90;;;;;;6218045;23;20197;-94
2021/09/16 08:36:28;;;;;;;10.77;1.60;;;10.00;99.90;;;;;;6217749;23;20176;-94
2021/09/16 08:38:59;;;;;;;5.83;2.37;;;10.00;99.90;;;;;;6218175;23;20177;-93
2021/09/16 08:41:32;;;;;;;10.80;2.17;;;10.00;99.90;;;;;;6217295;23;20184;-92
2021/09/16 08:44:05;;;;;;;9.67;2.10;;;10.00;99.90;;;;;;6218414;23;20180;-93
2021/09/16 08:46:37;;;;;;;10.87;2.30;;;9.90;99.90;;;;;;6217294;23;20235;-91
2021/09/16 08:49:12;;;;;;;8.47;1.97;;;9.90;99.90;;;;;;6192225;23;20184;-92
2021/09/16 08:51:45;;;;;;;7.10;2.10;;;9.90;99.90;;;;;;6218963;23;20610;-93
2021/09/16 08:54:17;;;;;;;8.13;2.30;;;9.80;99.90;;;;;;6218114;23;20650;-92
2021/09/16 08:56:49;;;;;;;11.67;2.43;;;9.90;99.90;;;;;;6218189;23;20811;-93
2021/09/16 08:59:21;;;;;;;7.00;2.00;;;9.80;99.90;;;;;;6220325;23;20180;-93
2021/09/16 09:01:52;;;;;;;9.20;2.53;;;9.80;99.90;;;;;;6221374;23;20183;-93
2021/09/16 09:04:25;;;;;;;11.87;2.87;;;9.60;99.90;;;;;;6218049;23;20168;-92
2021/09/16 09:07:04;;;;;;;14.77;2.03;;;9.60;99.90;;;;;;6218473;23;20169;-93
2021/09/16 09:09:35;;;;;;;12.23;2.77;;;9.50;99.90;;;;;;6224908;23;20188;-93
2021/09/16 09:12:11;;;;;;;10.47;2.50;;;9.50;99.90;;;;;;6217258;23;20259;-94
2021/09/16 09:14:43;;;;;;;8.50;2.17;;;9.50;99.90;;;;;;6217499;23;20246;-93
2021/09/16 09:17:20;;;;;;;11.90;2.33;;;9.50;99.90;;;;;;6218159;23;20168;-94
2021/09/16 09:19:58;;;;;;;10.10;2.27;;;9.40;99.90;;;;;;6217781;23;20286;-93
2021/09/16 09:22:31;;;;;;;13.50;2.57;;;9.40;99.90;;;;;;6231957;23;20195;-93
2021/09/16 09:25:07;;;;;;;6.27;2.13;;;9.40;99.90;;;;;;6229044;23;20179;-94
2021/09/16 09:27:41;;;;;;;9.57;2.43;;;9.40;99.90;;;;;;6225035;23;20201;-93
2021/09/16 09:30:15;;;;;;;9.93;2.20;;;9.30;99.90;;;;;;6217489;23;20179;-93
2021/09/16 09:32:55;;;;;;;11.73;2.37;;;9.30;99.90;;;;;;6216459;23;20727;-93
2021/09/16 09:35:43;;;;;;;6.20;1.63;;;9.30;99.90;;;;;;6217447;23;20227;-93
2021/09/16 09:38:21;;;;;;;7.13;1.70;;;9.30;99.90;;;;;;6217203;23;20213;-93
2021/09/16 09:40:53;;;;;;;10.43;2.33;;;9.30;99.90;;;;;;6215669;23;20184;-92
2021/09/16 09:43:32;;;;;;;10.17;2.13;;;9.30;99.90;;;;;;6217661;23;20503;-92
2021/09/16 09:46:06;;;;;;;14.27;2.20;;;9.30;99.90;;;;;;6216855;23;20178;-92
2021/09/16 09:48:43;;;;;;;10.30;1.97;;;9.20;99.90;;;;;;6217930;23;20187;-92
2021/09/16 09:51:17;;;;;;;13.27;2.50;;;9.20;99.90;;;;;;6218081;23;20554;-92
2021/09/16 09:53:48;;;;;;;10.63;2.50;;;9.20;99.90;;;;;;6219562;23;20180;-93
2021/09/16 09:56:36;;;;;;;11.10;2.47;;;9.20;99.90;;;;;;6219316;23;20227;-93
2021/09/16 09:59:08;;;;;;;10.73;3.10;;;9.20;99.90;;;;;;6219317;23;20203;-92
2021/09/16 10:01:39;;;;;;;14.17;3.30;;;9.20;99.90;;;;;;6218368;23;20236;-92
2021/09/16 10:04:27;;;;;;;13.10;2.37;;;9.10;99.90;;;;;;6222383;23;20183;-92
2021/09/16 10:07:01;;;;;;;12.93;2.20;;;9.00;99.90;;;;;;6218111;23;20183;-92
2021/09/16 10:09:32;;;;;;;8.43;2.03;;;9.10;99.90;;;;;;6219058;23;20665;-94
2021/09/16 10:12:03;;;;;;;8.60;2.20;;;9.10;99.90;;;;;;6218048;23;20218;-94
2021/09/16 10:14:34;;;;;;;9.57;2.60;;;9.10;99.90;;;;;;6218840;23;20203;-94
2021/09/16 10:17:08;;;;;;;13.33;2.37;;;9.00;99.90;;;;;;6218722;23;20493;-94
2021/09/16 10:19:42;;;;;;;11.10;2.37;;;9.00;99.90;;;;;;6218922;23;20172;-94
2021/09/16 10:22:16;;;;;;;12.50;2.20;;;9.00;99.90;;;;;;6218926;23;20653;-94
2021/09/16 10:24:48;;;;;;;11.27;2.47;;;9.10;99.90;;;;;;6219804;23;20190;-94
2021/09/16 10:27:31;;;;;;;10.37;2.60;;;9.10;99.90;;;;;;6218952;23;20182;-93
2021/09/16 10:30:18;;;;;;;8.77;2.60;;;9.10;99.90;;;;;;6219246;23;20172;-92
2021/09/16 10:33:01;;;;;;;11.30;2.47;;;9.10;99.90;;;;;;6220241;23;20195;-94
2021/09/16 10:35:33;;;;;;;7.53;2.17;;;9.10;99.90;;;;;;6214586;23;20267;-94
2021/09/16 10:38:28;;;;;;;11.10;2.20;;;9.10;99.90;;;;;;6241740;23;20172;-94
2021/09/16 10:41:18;;;;;;;9.20;2.33;;;9.20;99.90;;;;;;6228648;23;20567;-94
2021/09/16 10:43:52;;;;;;;8.63;2.20;;;9.20;99.90;;;;;;6221930;23;20177;-94
2021/09/16 10:46:30;;;;;;;10.50;2.57;;;9.20;99.90;;;;;;6220836;23;20198;-94
2021/09/16 10:49:37;;;;;;;5.70;1.80;;;9.20;99.90;;;;;;6219132;23;20637;-93
2021/09/16 10:52:26;;;;;;;6.03;2.10;;;9.20;99.90;;;;;;6190007;23;20184;-93
2021/09/16 10:54:59;;;;;;;11.53;2.67;;;9.20;99.90;;;;;;6221107;23;20250;-94
2021/09/16 10:57:38;;;;;;;9.03;2.33;;;9.20;99.90;;;;;;6219485;23;20176;-94
2021/09/16 11:00:16;;;;;;;9.17;2.10;;;9.20;99.90;;;;;;6219193;23;20488;-93
2021/09/16 11:03:12;;;;;;;8.37;2.77;;;9.10;99.90;;;;;;6219581;23;20176;-94
2021/09/16 11:05:50;;;;;;;10.10;2.13;;;9.10;99.90;;;;;;6220152;23;20203;-93
2021/09/16 11:08:24;;;;;;;10.20;2.33;;;9.10;99.90;;;;;;6220344;23;20179;-93
2021/09/16 11:11:01;;;;;;;15.10;2.40;;;9.00;99.90;;;;;;6218335;23;20188;-94
2021/09/16 11:13:53;;;;;;;13.77;2.40;;;8.80;99.90;;;;;;6219239;23;20176;-94
2021/09/16 11:16:26;;;;;;;9.53;2.27;;;8.80;99.90;;;;;;6219208;23;20196;-94
2021/09/16 11:19:08;;;;;;;10.70;2.47;;;8.90;99.90;;;;;;6219671;23;20176;-95
2021/09/16 11:21:40;;;;;;;12.27;2.50;;;8.90;99.90;;;;;;6219560;23;20198;-94
2021/09/16 11:24:11;;;;;;;11.87;2.57;;;8.90;99.90;;;;;;6221775;23;20169;-94
2021/09/16 11:26:48;;;;;;;13.17;2.53;;;8.90;99.90;;;;;;6240108;23;20468;-94
2021/09/16 11:29:19;;;;;;;13.00;3.00;;;8.80;99.90;;;;;;6235602;23;20178;-95
2021/09/16 11:32:01;;;;;;;11.00;3.07;;;8.80;99.90;;;;;;6230872;23;20557;-95
2021/09/16 11:34:33;;;;;;;9.87;3.10;;;8.80;99.90;;;;;;6231786;23;20200;-94
2021/09/16 11:37:18;;;;;;;15.30;2.37;;;8.80;99.90;;;;;;6226889;23;20188;-95
2021/09/16 11:40:02;;;;;;;15.83;2.57;;;8.70;99.90;;;;;;6219052;23;20179;-94
2021/09/16 11:42:40;;;;;;;8.60;2.53;;;8.70;99.90;;;;;;6220710;23;20171;-94
2021/09/16 11:45:17;;;;;;;11.17;2.23;;;8.70;99.90;;;;;;6218901;23;20176;-93
2021/09/16 11:47:54;;;;;;;10.97;2.40;;;8.60;99.90;;;;;;6218801;23;20180;-94
2021/09/16 11:50:32;;;;;;;10.33;2.50;;;8.60;99.90;;;;;;6219383;23;20614;-93
2021/09/16 11:53:05;;;;;;;17.23;3.17;;;8.50;99.90;;;;;;6218750;23;20167;-93
2021/09/16 11:55:37;;;;;;;11.47;2.70;;;8.40;99.90;;;;;;6218359;23;20196;-93
2021/09/16 11:58:14;;;;;;;10.73;2.17;;;8.30;99.90;;;;;;6218312;23;20709;-92
2021/09/16 12:00:48;;;;;;;9.43;2.33;;;8.30;99.90;;;;;;6218020;23;20164;-92
2021/09/16 12:03:22;;;;;;;7.83;2.07;;;8.40;99.90;;;;;;6217289;23;20275;-92
2021/09/16 12:05:54;;;;;;;8.83;2.00;;;8.40;99.90;;;;;;6218285;23;20212;-93
2021/09/16 12:08:28;;;;;;;9.07;2.00;;;8.40;99.90;;;;;;6218742;23;20168;-93
2021/09/16 12:11:05;;;;;;;11.00;2.87;;;8.40;99.90;;;;;;6185975;23;20611;-94
2021/09/16 12:13:40;;;;;;;11.57;2.23;;;8.30;99.90;;;;;;6188433;23;20259;-95
2021/09/16 12:16:13;;;;;;;9.27;2.60;;;8.30;99.90;;;;;;6189344;23;20204;-95
2021/09/16 12:18:46;;;;;;;6.60;2.03;;;8.30;99.90;;;;;;6187463;23;20203;-95
2021/09/16 12:21:22;;;;;;;8.97;2.27;;;8.30;99.90;;;;;;6187952;23;20200;-94
2021/09/16 12:23:55;;;;;;;10.80;2.00;;;8.30;99.90;;;;;;6188905;23;20219;-95
2021/09/16 12:26:28;;;;;;;7.23;2.70;;;8.20;99.90;;;;;;6188968;23;20183;-95
2021/09/16 12:29:05;;;;;;;7.53;2.23;;;8.20;99.90;;;;;;6188764;23;20180;-94
2021/09/16 12:31:38;;;;;;;11.70;2.43;;;8.10;99.90;;;;;;6187259;23;20180;-95
2021/09/16 12:34:11;;;;;;;11.83;2.37;;;8.10;99.90;;;;;;6188057;23;20648;-95
2021/09/16 12:36:53;;;;;;;6.57;2.50;;;8.10;99.90;;;;;;6190495;23;20629;-95
2021/09/16 12:39:24;;;;;;;4.73;1.70;;;8.10;99.90;;;;;;6188738;23;20501;-94
2021/09/16 12:41:57;;;;;;;6.73;2.33;;;8.10;99.90;;;;;;6188070;23;20172;-94
2021/09/16 12:44:34;;;;;;;9.90;2.40;;;8.00;99.90;;;;;;6188669;23;20177;-94
2021/09/16 12:47:10;;;;;;;6.37;2.23;;;8.00;99.90;;;;;;6200212;23;20172;-93
2021/09/16 12:49:51;;;;;;;7.10;2.33;;;8.00;99.90;;;;;;6211211;23;20180;-93
2021/09/16 12:52:24;;;;;;;6.57;2.33;;;8.00;99.90;;;;;;6209248;23;20219;-93
2021/09/16 12:54:58;;;;;;;11.30;2.10;;;8.00;99.90;;;;;;6194910;23;20170;-92
2021/09/16 12:57:30;;;;;;;5.57;2.03;;;8.00;99.90;;;;;;6188700;23;20519;-93
2021/09/16 13:00:08;;;;;;;5.20;1.93;;;7.90;99.90;;;;;;6189889;23;20173;-93
2021/09/16 13:02:45;;;;;;;8.23;2.60;;;7.90;99.90;;;;;;6189121;23;20181;-93
2021/09/16 13:05:22;;;;;;;5.43;2.13;;;7.90;99.90;;;;;;6191643;23;20161;-92
2021/09/16 13:08:10;;;;;;;5.53;2.10;;;7.90;99.90;;;;;;6188268;23;20211;-93
2021/09/16 13:10:42;;;;;;;5.53;2.03;;;7.90;99.90;;;;;;6205392;23;20573;-94
2021/09/16 13:13:15;;;;;;;5.73;2.30;;;7.90;99.90;;;;;;6218778;23;20212;-93
2021/09/16 13:15:51;;;;;;;8.07;2.00;;;7.80;99.90;;;;;;6218915;23;20172;-93
2021/09/16 13:18:22;;;;;;;5.87;2.30;;;7.80;99.90;;;;;;6218846;23;20181;-93
2021/09/16 13:20:54;;;;;;;6.70;1.90;;;7.80;99.90;;;;;;6217706;23;20231;-93
2021/09/16 13:23:25;;;;;;;4.90;1.80;;;7.80;99.90;;;;;;6220562;23;20188;-94
2021/09/16 13:25:57;;;;;;;5.00;1.80;;;7.70;99.90;;;;;;6221135;23;20183;-94
2021/09/16 13:28:28;;;;;;;7.27;1.80;;;7.70;99.90;;;;;;6221228;23;20192;-93
2021/09/16 13:31:01;;;;;;;8.07;1.70;;;7.70;99.90;;;;;;6220936;23;20179;-93